Terminal Aerodrome Forecast
Issued by NWS Twin Cities, MN

Home | Current Version | Previous Version | Graphics & Text | Print | Product List | Glossary On
Versions: 1 2 3 4 5 6 7 8 9 10 11 12 13 14 15 16 17 18 19 20 21
229
FTUS43 KMPX 050815 AAA
TAFSTC
TAF AMD
KSTC 050815Z 0508/0606 19004KT 6SM BR SCT100
     FM051400 13010KT P6SM OVC100
     FM051900 14011G17KT P6SM OVC050
     FM060200 23012KT P6SM OVC035=

USA.gov is the U.S. government's official web portal to all federal, state and local government web resources and services.